sensor_id;sensor_type;location;lat;lon;timestamp;temperature;humidity
13521;DHT22;6832;51.186;3.236;2023-02-14T00:00:41;15.10;63.10
13521;DHT22;6832;51.186;3.236;2023-02-14T00:03:12;15.10;63.10
13521;DHT22;6832;51.186;3.236;2023-02-14T00:05:46;15.10;63.20
13521;DHT22;6832;51.186;3.236;2023-02-14T00:11:38;14.90;62.90
13521;DHT22;6832;51.186;3.236;2023-02-14T00:17:56;15.00;62.90
13521;DHT22;6832;51.186;3.236;2023-02-14T00:23:41;15.00;63.00
13521;DHT22;6832;51.186;3.236;2023-02-14T00:26:33;14.90;63.00
13521;DHT22;6832;51.186;3.236;2023-02-14T00:29:03;14.90;62.90
13521;DHT22;6832;51.186;3.236;2023-02-14T00:31:33;14.90;63.10
13521;DHT22;6832;51.186;3.236;2023-02-14T00:34:04;14.90;63.10
13521;DHT22;6832;51.186;3.236;2023-02-14T00:36:35;14.90;63.00
13521;DHT22;6832;51.186;3.236;2023-02-14T00:39:09;14.90;63.00
13521;DHT22;6832;51.186;3.236;2023-02-14T00:41:44;14.90;62.90
13521;DHT22;6832;51.186;3.236;2023-02-14T00:47:44;14.90;62.80
13521;DHT22;6832;51.186;3.236;2023-02-14T00:53:29;14.70;62.50
13521;DHT22;6832;51.186;3.236;2023-02-14T00:55:57;14.80;62.70
13521;DHT22;6832;51.186;3.236;2023-02-14T00:58:26;14.80;62.80
13521;DHT22;6832;51.186;3.236;2023-02-14T01:00:59;14.80;62.90
13521;DHT22;6832;51.186;3.236;2023-02-14T01:03:26;14.70;62.80
13521;DHT22;6832;51.186;3.236;2023-02-14T01:08:49;14.80;62.90
13521;DHT22;6832;51.186;3.236;2023-02-14T01:09:25;14.70;62.70
13521;DHT22;6832;51.186;3.236;2023-02-14T01:11:52;14.80;62.80
13521;DHT22;6832;51.186;3.236;2023-02-14T01:14:19;14.70;62.80
13521;DHT22;6832;51.186;3.236;2023-02-14T01:16:48;14.70;62.70
13521;DHT22;6832;51.186;3.236;2023-02-14T01:19:16;14.70;62.60
13521;DHT22;6832;51.186;3.236;2023-02-14T01:21:44;14.70;62.70
13521;DHT22;6832;51.186;3.236;2023-02-14T01:27:44;14.70;62.50
13521;DHT22;6832;51.186;3.236;2023-02-14T01:31:25;14.70;62.70
13521;DHT22;6832;51.186;3.236;2023-02-14T01:33:24;14.70;62.50
13521;DHT22;6832;51.186;3.236;2023-02-14T01:35:51;14.70;62.70
13521;DHT22;6832;51.186;3.236;2023-02-14T01:38:19;14.70;62.60
13521;DHT22;6832;51.186;3.236;2023-02-14T01:40:48;14.60;62.40
13521;DHT22;6832;51.186;3.236;2023-02-14T01:43:46;14.60;62.40
13521;DHT22;6832;51.186;3.236;2023-02-14T01:47:34;14.60;62.40
13521;DHT22;6832;51.186;3.236;2023-02-14T01:49:54;14.60;62.40
13521;DHT22;6832;51.186;3.236;2023-02-14T01:52:26;14.60;62.50
13521;DHT22;6832;51.186;3.236;2023-02-14T01:55:11;14.50;63.10
13521;DHT22;6832;51.186;3.236;2023-02-14T01:58:03;14.50;62.30
13521;DHT22;6832;51.186;3.236;2023-02-14T02:00:53;14.50;62.40
13521;DHT22;6832;51.186;3.236;2023-02-14T02:03:54;14.50;62.30
13521;DHT22;6832;51.186;3.236;2023-02-14T02:10:34;14.50;62.20
13521;DHT22;6832;51.186;3.236;2023-02-14T02:13:31;14.40;62.00
13521;DHT22;6832;51.186;3.236;2023-02-14T02:29:18;14.40;62.20
13521;DHT22;6832;51.186;3.236;2023-02-14T02:32:30;14.40;62.20
13521;DHT22;6832;51.186;3.236;2023-02-14T02:39:08;14.30;62.00
13521;DHT22;6832;51.186;3.236;2023-02-14T02:41:47;14.30;62.10
13521;DHT22;6832;51.186;3.236;2023-02-14T02:44:42;14.30;62.20
13521;DHT22;6832;51.186;3.236;2023-02-14T02:47:29;14.30;62.00
13521;DHT22;6832;51.186;3.236;2023-02-14T02:50:35;14.30;62.20
13521;DHT22;6832;51.186;3.236;2023-02-14T02:53:25;14.20;61.90
13521;DHT22;6832;51.186;3.236;2023-02-14T02:56:02;14.20;62.10
13521;DHT22;6832;51.186;3.236;2023-02-14T02:58:54;14.20;62.10
13521;DHT22;6832;51.186;3.236;2023-02-14T03:01:28;14.20;62.20
13521;DHT22;6832;51.186;3.236;2023-02-14T03:04:03;14.20;62.10
13521;DHT22;6832;51.186;3.236;2023-02-14T03:06:50;14.20;62.20
13521;DHT22;6832;51.186;3.236;2023-02-14T03:09:49;14.20;62.20
13521;DHT22;6832;51.186;3.236;2023-02-14T03:12:45;14.20;61.90
13521;DHT22;6832;51.186;3.236;2023-02-14T03:15:32;14.10;62.00
13521;DHT22;6832;51.186;3.236;2023-02-14T03:18:28;14.10;61.90
13521;DHT22;6832;51.186;3.236;2023-02-14T03:21:07;14.10;61.90
13521;DHT22;6832;51.186;3.236;2023-02-14T03:23:40;14.10;62.00
13521;DHT22;6832;51.186;3.236;2023-02-14T03:26:21;14.10;62.00
13521;DHT22;6832;51.186;3.236;2023-02-14T03:29:28;14.10;61.90
13521;DHT22;6832;51.186;3.236;2023-02-14T03:32:04;14.10;61.70
13521;DHT22;6832;51.186;3.236;2023-02-14T03:35:03;14.10;61.80
13521;DHT22;6832;51.186;3.236;2023-02-14T03:37:59;14.10;61.90
13521;DHT22;6832;51.186;3.236;2023-02-14T03:44:24;14.00;61.60
13521;DHT22;6832;51.186;3.236;2023-02-14T03:47:00;14.00;61.70
13521;DHT22;6832;51.186;3.236;2023-02-14T03:49:46;14.00;61.70
13521;DHT22;6832;51.186;3.236;2023-02-14T03:52:15;14.00;61.60
13521;DHT22;6832;51.186;3.236;2023-02-14T03:54:48;13.90;61.70
13521;DHT22;6832;51.186;3.236;2023-02-14T03:58:09;14.00;61.80
13521;DHT22;6832;51.186;3.236;2023-02-14T04:00:27;13.90;61.70
13521;DHT22;6832;51.186;3.236;2023-02-14T04:03:09;13.90;61.70
13521;DHT22;6832;51.186;3.236;2023-02-14T04:05:38;13.90;61.60
13521;DHT22;6832;51.186;3.236;2023-02-14T04:08:11;13.90;61.70
13521;DHT22;6832;51.186;3.236;2023-02-14T04:10:51;13.80;61.60
13521;DHT22;6832;51.186;3.236;2023-02-14T04:13:27;13.90;61.70
13521;DHT22;6832;51.186;3.236;2023-02-14T04:16:10;13.80;61.60
13521;DHT22;6832;51.186;3.236;2023-02-14T04:18:50;13.90;61.60
13521;DHT22;6832;51.186;3.236;2023-02-14T04:28:13;13.80;61.50
13521;DHT22;6832;51.186;3.236;2023-02-14T04:30:46;13.80;61.60
13521;DHT22;6832;51.186;3.236;2023-02-14T04:34:00;13.80;61.50
13521;DHT22;6832;51.186;3.236;2023-02-14T04:36:34;13.80;61.50
13521;DHT22;6832;51.186;3.236;2023-02-14T04:39:13;13.70;61.40
13521;DHT22;6832;51.186;3.236;2023-02-14T04:41:48;13.70;61.40
13521;DHT22;6832;51.186;3.236;2023-02-14T04:44:30;13.80;61.60
13521;DHT22;6832;51.186;3.236;2023-02-14T04:47:06;13.70;61.50
13521;DHT22;6832;51.186;3.236;2023-02-14T04:49:47;13.70;61.60
13521;DHT22;6832;51.186;3.236;2023-02-14T04:52:30;13.70;61.40
13521;DHT22;6832;51.186;3.236;2023-02-14T04:55:07;13.70;61.50
13521;DHT22;6832;51.186;3.236;2023-02-14T04:57:56;13.70;61.50
13521;DHT22;6832;51.186;3.236;2023-02-14T05:00:26;13.70;61.50
13521;DHT22;6832;51.186;3.236;2023-02-14T05:02:55;13.70;61.50
13521;DHT22;6832;51.186;3.236;2023-02-14T05:05:25;13.70;61.60
13521;DHT22;6832;51.186;3.236;2023-02-14T05:08:21;13.70;61.40
13521;DHT22;6832;51.186;3.236;2023-02-14T05:10:50;13.70;61.50
13521;DHT22;6832;51.186;3.236;2023-02-14T05:13:22;13.70;61.60
13521;DHT22;6832;51.186;3.236;2023-02-14T05:16:07;13.70;61.50
13521;DHT22;6832;51.186;3.236;2023-02-14T05:18:49;13.60;61.40
13521;DHT22;6832;51.186;3.236;2023-02-14T05:21:21;13.60;61.30
13521;DHT22;6832;51.186;3.236;2023-02-14T05:23:59;13.70;61.40
13521;DHT22;6832;51.186;3.236;2023-02-14T05:26:28;13.60;61.30
13521;DHT22;6832;51.186;3.236;2023-02-14T05:29:13;13.60;61.30
13521;DHT22;6832;51.186;3.236;2023-02-14T05:31:43;13.60;61.30
13521;DHT22;6832;51.186;3.236;2023-02-14T05:34:27;13.60;61.20
13521;DHT22;6832;51.186;3.236;2023-02-14T05:37:07;13.60;61.30
13521;DHT22;6832;51.186;3.236;2023-02-14T05:39:38;13.60;61.20
13521;DHT22;6832;51.186;3.236;2023-02-14T05:42:32;13.50;61.10
13521;DHT22;6832;51.186;3.236;2023-02-14T05:45:22;13.50;61.00
13521;DHT22;6832;51.186;3.236;2023-02-14T05:47:54;13.60;61.30
13521;DHT22;6832;51.186;3.236;2023-02-14T05:50:24;13.50;61.20
13521;DHT22;6832;51.186;3.236;2023-02-14T05:53:19;13.50;61.20
13521;DHT22;6832;51.186;3.236;2023-02-14T05:55:49;13.50;61.10
13521;DHT22;6832;51.186;3.236;2023-02-14T05:58:16;13.50;61.20
13521;DHT22;6832;51.186;3.236;2023-02-14T06:00:43;13.50;61.20
13521;DHT22;6832;51.186;3.236;2023-02-14T06:03:13;13.50;61.20
13521;DHT22;6832;51.186;3.236;2023-02-14T06:05:45;13.50;61.20
13521;DHT22;6832;51.186;3.236;2023-02-14T06:08:21;13.50;61.20
13521;DHT22;6832;51.186;3.236;2023-02-14T06:11:02;13.50;61.10
13521;DHT22;6832;51.186;3.236;2023-02-14T06:13:31;13.50;61.20
13521;DHT22;6832;51.186;3.236;2023-02-14T06:15:58;13.50;61.20
13521;DHT22;6832;51.186;3.236;2023-02-14T06:18:25;13.50;61.20
13521;DHT22;6832;51.186;3.236;2023-02-14T06:20:54;13.40;61.10
13521;DHT22;6832;51.186;3.236;2023-02-14T06:23:26;13.40;61.10
13521;DHT22;6832;51.186;3.236;2023-02-14T06:25:53;13.40;61.00
13521;DHT22;6832;51.186;3.236;2023-02-14T06:28:20;13.40;61.10
13521;DHT22;6832;51.186;3.236;2023-02-14T06:30:49;13.40;61.10
13521;DHT22;6832;51.186;3.236;2023-02-14T06:33:17;13.40;61.20
13521;DHT22;6832;51.186;3.236;2023-02-14T06:35:46;13.40;61.10
13521;DHT22;6832;51.186;3.236;2023-02-14T06:38:13;13.40;61.10
13521;DHT22;6832;51.186;3.236;2023-02-14T06:40:46;13.50;61.10
13521;DHT22;6832;51.186;3.236;2023-02-14T06:46:20;13.40;61.00
13521;DHT22;6832;51.186;3.236;2023-02-14T06:48:50;13.40;61.10
13521;DHT22;6832;51.186;3.236;2023-02-14T06:51:23;13.30;61.00
13521;DHT22;6832;51.186;3.236;2023-02-14T06:53:55;13.50;61.20
13521;DHT22;6832;51.186;3.236;2023-02-14T06:56:26;13.40;61.10
13521;DHT22;6832;51.186;3.236;2023-02-14T06:59:06;13.40;61.20
13521;DHT22;6832;51.186;3.236;2023-02-14T07:01:36;13.40;61.10
13521;DHT22;6832;51.186;3.236;2023-02-14T07:04:14;13.30;61.00
13521;DHT22;6832;51.186;3.236;2023-02-14T07:06:56;13.40;61.00
13521;DHT22;6832;51.186;3.236;2023-02-14T07:12:31;13.40;61.00
13521;DHT22;6832;51.186;3.236;2023-02-14T07:15:23;13.30;61.00
13521;DHT22;6832;51.186;3.236;2023-02-14T07:17:54;13.30;60.80
13521;DHT22;6832;51.186;3.236;2023-02-14T07:23:47;13.30;60.80
13521;DHT22;6832;51.186;3.236;2023-02-14T07:36:15;13.30;60.90
13521;DHT22;6832;51.186;3.236;2023-02-14T07:39:01;13.20;60.80
13521;DHT22;6832;51.186;3.236;2023-02-14T07:42:09;13.20;60.90
13521;DHT22;6832;51.186;3.236;2023-02-14T07:48:39;13.20;60.80
13521;DHT22;6832;51.186;3.236;2023-02-14T07:52:01;13.30;61.00
13521;DHT22;6832;51.186;3.236;2023-02-14T07:58:26;13.20;61.10
13521;DHT22;6832;51.186;3.236;2023-02-14T08:01:11;13.20;61.00
13521;DHT22;6832;51.186;3.236;2023-02-14T08:04:09;13.10;61.00
13521;DHT22;6832;51.186;3.236;2023-02-14T08:07:19;13.20;60.90
13521;DHT22;6832;51.186;3.236;2023-02-14T08:09:57;13.20;60.90
13521;DHT22;6832;51.186;3.236;2023-02-14T08:12:24;13.20;61.20
13521;DHT22;6832;51.186;3.236;2023-02-14T08:15:15;13.10;61.10
13521;DHT22;6832;51.186;3.236;2023-02-14T08:18:00;13.10;61.20
13521;DHT22;6832;51.186;3.236;2023-02-14T08:20:27;13.10;61.30
13521;DHT22;6832;51.186;3.236;2023-02-14T08:22:58;13.10;61.40
13521;DHT22;6832;51.186;3.236;2023-02-14T08:25:33;13.10;61.60
13521;DHT22;6832;51.186;3.236;2023-02-14T08:28:01;13.10;61.60
13521;DHT22;6832;51.186;3.236;2023-02-14T08:30:34;13.10;61.60
13521;DHT22;6832;51.186;3.236;2023-02-14T08:36:12;13.10;61.50
13521;DHT22;6832;51.186;3.236;2023-02-14T08:38:44;13.10;61.50
13521;DHT22;6832;51.186;3.236;2023-02-14T08:41:13;13.10;61.40
13521;DHT22;6832;51.186;3.236;2023-02-14T08:43:41;13.10;61.20
13521;DHT22;6832;51.186;3.236;2023-02-14T08:46:09;13.10;61.20
13521;DHT22;6832;51.186;3.236;2023-02-14T08:48:39;13.10;61.10
13521;DHT22;6832;51.186;3.236;2023-02-14T08:51:07;13.10;61.10
13521;DHT22;6832;51.186;3.236;2023-02-14T08:53:38;13.10;61.90
13521;DHT22;6832;51.186;3.236;2023-02-14T08:56:08;13.10;61.10
13521;DHT22;6832;51.186;3.236;2023-02-14T08:58:36;13.20;61.20
13521;DHT22;6832;51.186;3.236;2023-02-14T09:01:24;13.10;61.10
13521;DHT22;6832;51.186;3.236;2023-02-14T09:03:53;13.10;61.10
13521;DHT22;6832;51.186;3.236;2023-02-14T09:06:21;13.10;61.10
13521;DHT22;6832;51.186;3.236;2023-02-14T09:08:55;13.10;61.10
13521;DHT22;6832;51.186;3.236;2023-02-14T09:11:27;13.10;61.10
13521;DHT22;6832;51.186;3.236;2023-02-14T09:14:05;13.10;61.10
13521;DHT22;6832;51.186;3.236;2023-02-14T09:16:36;13.10;61.10
13521;DHT22;6832;51.186;3.236;2023-02-14T09:19:05;13.10;61.10
13521;DHT22;6832;51.186;3.236;2023-02-14T09:21:34;13.10;61.10
13521;DHT22;6832;51.186;3.236;2023-02-14T09:24:02;13.10;61.10
13521;DHT22;6832;51.186;3.236;2023-02-14T09:26:34;13.10;61.10
13521;DHT22;6832;51.186;3.236;2023-02-14T09:29:05;13.10;61.10
13521;DHT22;6832;51.186;3.236;2023-02-14T09:31:32;13.10;61.20
13521;DHT22;6832;51.186;3.236;2023-02-14T09:34:11;13.10;61.20
13521;DHT22;6832;51.186;3.236;2023-02-14T09:36:55;13.10;61.40
13521;DHT22;6832;51.186;3.236;2023-02-14T09:39:40;13.10;61.40
13521;DHT22;6832;51.186;3.236;2023-02-14T09:42:30;13.10;61.50
13521;DHT22;6832;51.186;3.236;2023-02-14T09:45:05;13.10;61.70
13521;DHT22;6832;51.186;3.236;2023-02-14T09:47:44;13.00;61.70
13521;DHT22;6832;51.186;3.236;2023-02-14T09:50:19;13.10;61.70
13521;DHT22;6832;51.186;3.236;2023-02-14T09:52:52;13.10;61.80
13521;DHT22;6832;51.186;3.236;2023-02-14T09:55:25;13.10;61.80
13521;DHT22;6832;51.186;3.236;2023-02-14T09:58:13;13.10;61.90
13521;DHT22;6832;51.186;3.236;2023-02-14T10:00:45;13.00;61.80
13521;DHT22;6832;51.186;3.236;2023-02-14T10:03:40;13.10;61.90
13521;DHT22;6832;51.186;3.236;2023-02-14T10:06:25;13.10;61.90
13521;DHT22;6832;51.186;3.236;2023-02-14T10:09:51;13.10;61.90
13521;DHT22;6832;51.186;3.236;2023-02-14T10:12:22;13.10;62.00
13521;DHT22;6832;51.186;3.236;2023-02-14T10:15:04;13.10;61.90
13521;DHT22;6832;51.186;3.236;2023-02-14T10:17:38;13.10;61.90
13521;DHT22;6832;51.186;3.236;2023-02-14T10:20:16;13.10;62.10
13521;DHT22;6832;51.186;3.236;2023-02-14T10:23:19;13.10;61.90
13521;DHT22;6832;51.186;3.236;2023-02-14T10:25:52;13.20;62.10
13521;DHT22;6832;51.186;3.236;2023-02-14T10:28:31;13.10;61.80
13521;DHT22;6832;51.186;3.236;2023-02-14T10:31:26;13.20;62.20
13521;DHT22;6832;51.186;3.236;2023-02-14T10:34:24;13.20;62.40
13521;DHT22;6832;51.186;3.236;2023-02-14T10:38:29;13.20;62.00
13521;DHT22;6832;51.186;3.236;2023-02-14T10:41:49;13.20;61.90
13521;DHT22;6832;51.186;3.236;2023-02-14T10:43:57;13.30;62.10
13521;DHT22;6832;51.186;3.236;2023-02-14T10:46:37;13.20;62.80
13521;DHT22;6832;51.186;3.236;2023-02-14T10:49:24;13.20;62.90
13521;DHT22;6832;51.186;3.236;2023-02-14T10:52:06;13.30;62.70
13521;DHT22;6832;51.186;3.236;2023-02-14T10:54:42;13.40;62.70
13521;DHT22;6832;51.186;3.236;2023-02-14T10:57:13;13.40;62.80
13521;DHT22;6832;51.186;3.236;2023-02-14T11:03:00;13.50;63.30
13521;DHT22;6832;51.186;3.236;2023-02-14T11:05:33;13.60;63.70
13521;DHT22;6832;51.186;3.236;2023-02-14T11:08:16;13.60;63.70
13521;DHT22;6832;51.186;3.236;2023-02-14T11:10:45;13.70;64.00
13521;DHT22;6832;51.186;3.236;2023-02-14T11:13:33;13.70;63.90
13521;DHT22;6832;51.186;3.236;2023-02-14T11:16:03;13.80;64.30
13521;DHT22;6832;51.186;3.236;2023-02-14T11:18:32;13.80;64.10
13521;DHT22;6832;51.186;3.236;2023-02-14T11:21:02;13.90;64.20
13521;DHT22;6832;51.186;3.236;2023-02-14T11:23:34;13.90;64.10
13521;DHT22;6832;51.186;3.236;2023-02-14T11:26:19;14.00;64.20
13521;DHT22;6832;51.186;3.236;2023-02-14T11:28:53;14.00;64.20
13521;DHT22;6832;51.186;3.236;2023-02-14T11:31:27;14.10;64.20
13521;DHT22;6832;51.186;3.236;2023-02-14T11:33:57;14.10;64.30
13521;DHT22;6832;51.186;3.236;2023-02-14T11:36:26;14.20;64.30
13521;DHT22;6832;51.186;3.236;2023-02-14T11:38:57;14.20;64.20
13521;DHT22;6832;51.186;3.236;2023-02-14T11:44:16;14.30;64.20
13521;DHT22;6832;51.186;3.236;2023-02-14T11:46:48;14.30;64.20
13521;DHT22;6832;51.186;3.236;2023-02-14T11:49:30;14.40;65.00
13521;DHT22;6832;51.186;3.236;2023-02-14T11:52:08;14.40;64.40
13521;DHT22;6832;51.186;3.236;2023-02-14T11:54:39;14.40;64.30
13521;DHT22;6832;51.186;3.236;2023-02-14T11:57:20;14.50;64.40
13521;DHT22;6832;51.186;3.236;2023-02-14T11:59:52;14.50;64.70
13521;DHT22;6832;51.186;3.236;2023-02-14T12:02:28;14.50;64.80
13521;DHT22;6832;51.186;3.236;2023-02-14T12:05:02;14.60;65.20
13521;DHT22;6832;51.186;3.236;2023-02-14T12:07:31;14.60;65.30
13521;DHT22;6832;51.186;3.236;2023-02-14T12:10:18;14.70;65.40
13521;DHT22;6832;51.186;3.236;2023-02-14T12:12:51;14.70;65.70
13521;DHT22;6832;51.186;3.236;2023-02-14T12:15:36;14.80;65.80
13521;DHT22;6832;51.186;3.236;2023-02-14T12:18:39;14.80;65.80
13521;DHT22;6832;51.186;3.236;2023-02-14T12:21:43;14.90;66.10
13521;DHT22;6832;51.186;3.236;2023-02-14T12:24:24;14.90;66.00
13521;DHT22;6832;51.186;3.236;2023-02-14T12:27:09;15.00;66.10
13521;DHT22;6832;51.186;3.236;2023-02-14T12:29:45;15.00;66.10
13521;DHT22;6832;51.186;3.236;2023-02-14T12:32:20;15.10;66.10
13521;DHT22;6832;51.186;3.236;2023-02-14T12:34:49;15.10;66.20
13521;DHT22;6832;51.186;3.236;2023-02-14T12:37:26;15.20;66.20
13521;DHT22;6832;51.186;3.236;2023-02-14T12:40:11;15.20;66.30
13521;DHT22;6832;51.186;3.236;2023-02-14T12:42:53;15.20;66.30
13521;DHT22;6832;51.186;3.236;2023-02-14T12:45:32;15.30;66.40
13521;DHT22;6832;51.186;3.236;2023-02-14T12:48:15;15.40;66.40
13521;DHT22;6832;51.186;3.236;2023-02-14T12:50:49;15.40;66.40
13521;DHT22;6832;51.186;3.236;2023-02-14T12:53:38;15.40;66.40
13521;DHT22;6832;51.186;3.236;2023-02-14T12:56:13;15.50;66.60
13521;DHT22;6832;51.186;3.236;2023-02-14T12:58:53;15.50;66.40
13521;DHT22;6832;51.186;3.236;2023-02-14T13:01:33;15.50;66.50
13521;DHT22;6832;51.186;3.236;2023-02-14T13:07:12;15.60;66.70
13521;DHT22;6832;51.186;3.236;2023-02-14T13:09:50;15.60;66.40
13521;DHT22;6832;51.186;3.236;2023-02-14T13:12:31;15.70;66.60
13521;DHT22;6832;51.186;3.236;2023-02-14T13:15:17;15.70;66.50
13521;DHT22;6832;51.186;3.236;2023-02-14T13:17:51;15.80;66.70
13521;DHT22;6832;51.186;3.236;2023-02-14T13:23:13;15.80;66.40
13521;DHT22;6832;51.186;3.236;2023-02-14T13:25:46;15.80;66.30
13521;DHT22;6832;51.186;3.236;2023-02-14T13:28:15;15.80;66.30
13521;DHT22;6832;51.186;3.236;2023-02-14T13:30:42;15.90;66.30
13521;DHT22;6832;51.186;3.236;2023-02-14T13:33:22;15.90;66.20
13521;DHT22;6832;51.186;3.236;2023-02-14T13:35:50;15.90;66.40
13521;DHT22;6832;51.186;3.236;2023-02-14T13:38:20;15.90;66.30
13521;DHT22;6832;51.186;3.236;2023-02-14T13:40:53;16.00;66.40
13521;DHT22;6832;51.186;3.236;2023-02-14T13:43:52;16.00;66.40
13521;DHT22;6832;51.186;3.236;2023-02-14T13:46:46;16.00;66.70
13521;DHT22;6832;51.186;3.236;2023-02-14T13:49:28;16.00;66.60
13521;DHT22;6832;51.186;3.236;2023-02-14T13:51:58;16.10;66.60
13521;DHT22;6832;51.186;3.236;2023-02-14T13:54:32;16.10;66.40
13521;DHT22;6832;51.186;3.236;2023-02-14T13:57:26;16.10;66.40
13521;DHT22;6832;51.186;3.236;2023-02-14T14:00:22;16.10;66.60
13521;DHT22;6832;51.186;3.236;2023-02-14T14:02:52;16.20;66.50
13521;DHT22;6832;51.186;3.236;2023-02-14T14:05:55;16.20;66.40
13521;DHT22;6832;51.186;3.236;2023-02-14T14:08:51;16.20;66.50
13521;DHT22;6832;51.186;3.236;2023-02-14T14:14:31;16.20;66.40
13521;DHT22;6832;51.186;3.236;2023-02-14T14:17:21;16.30;66.40
13521;DHT22;6832;51.186;3.236;2023-02-14T14:19:50;16.20;66.30
13521;DHT22;6832;51.186;3.236;2023-02-14T14:22:19;16.30;66.30
13521;DHT22;6832;51.186;3.236;2023-02-14T14:27:45;16.30;66.30
13521;DHT22;6832;51.186;3.236;2023-02-14T14:30:21;16.30;66.30
13521;DHT22;6832;51.186;3.236;2023-02-14T14:32:49;16.30;66.30
13521;DHT22;6832;51.186;3.236;2023-02-14T14:35:23;16.30;66.20
13521;DHT22;6832;51.186;3.236;2023-02-14T14:37:54;16.40;66.30
13521;DHT22;6832;51.186;3.236;2023-02-14T14:40:26;16.40;66.20
13521;DHT22;6832;51.186;3.236;2023-02-14T14:42:58;16.40;66.20
13521;DHT22;6832;51.186;3.236;2023-02-14T14:45:29;16.40;66.20
13521;DHT22;6832;51.186;3.236;2023-02-14T14:48:01;16.40;66.20
13521;DHT22;6832;51.186;3.236;2023-02-14T14:50:34;16.50;66.30
13521;DHT22;6832;51.186;3.236;2023-02-14T14:53:04;16.50;66.20
13521;DHT22;6832;51.186;3.236;2023-02-14T14:55:36;16.50;66.20
13521;DHT22;6832;51.186;3.236;2023-02-14T14:58:06;16.50;66.20
13521;DHT22;6832;51.186;3.236;2023-02-14T15:00:39;16.50;66.20
13521;DHT22;6832;51.186;3.236;2023-02-14T15:03:13;16.50;66.10
13521;DHT22;6832;51.186;3.236;2023-02-14T15:05:43;16.60;66.30
13521;DHT22;6832;51.186;3.236;2023-02-14T15:08:16;16.60;66.20
13521;DHT22;6832;51.186;3.236;2023-02-14T15:10:48;16.60;66.20
13521;DHT22;6832;51.186;3.236;2023-02-14T15:13:37;16.60;66.00
13521;DHT22;6832;51.186;3.236;2023-02-14T15:16:29;16.50;66.10
13521;DHT22;6832;51.186;3.236;2023-02-14T15:19:05;16.60;66.10
13521;DHT22;6832;51.186;3.236;2023-02-14T15:21:34;16.70;66.20
13521;DHT22;6832;51.186;3.236;2023-02-14T15:24:03;16.70;66.10
13521;DHT22;6832;51.186;3.236;2023-02-14T15:26:32;16.70;66.10
13521;DHT22;6832;51.186;3.236;2023-02-14T15:29:01;16.70;66.10
13521;DHT22;6832;51.186;3.236;2023-02-14T15:31:40;16.70;66.00
13521;DHT22;6832;51.186;3.236;2023-02-14T15:34:10;16.70;66.10
13521;DHT22;6832;51.186;3.236;2023-02-14T15:36:42;16.70;66.00
13521;DHT22;6832;51.186;3.236;2023-02-14T15:39:35;16.70;66.00
13521;DHT22;6832;51.186;3.236;2023-02-14T15:42:03;16.70;66.00
13521;DHT22;6832;51.186;3.236;2023-02-14T15:44:31;16.70;66.70
13521;DHT22;6832;51.186;3.236;2023-02-14T15:47:03;16.80;66.00
13521;DHT22;6832;51.186;3.236;2023-02-14T15:49:42;16.80;66.10
13521;DHT22;6832;51.186;3.236;2023-02-14T15:52:13;16.80;66.00
13521;DHT22;6832;51.186;3.236;2023-02-14T15:54:43;16.80;65.90
13521;DHT22;6832;51.186;3.236;2023-02-14T15:57:19;16.90;65.90
13521;DHT22;6832;51.186;3.236;2023-02-14T15:59:48;16.80;65.80
13521;DHT22;6832;51.186;3.236;2023-02-14T16:02:28;16.80;65.70
13521;DHT22;6832;51.186;3.236;2023-02-14T16:05:06;16.80;65.70
13521;DHT22;6832;51.186;3.236;2023-02-14T16:07:35;16.80;65.60
13521;DHT22;6832;51.186;3.236;2023-02-14T16:10:23;16.80;65.60
13521;DHT22;6832;51.186;3.236;2023-02-14T16:12:56;16.80;65.60
13521;DHT22;6832;51.186;3.236;2023-02-14T16:15:24;16.80;65.40
13521;DHT22;6832;51.186;3.236;2023-02-14T16:17:53;16.80;65.90
13521;DHT22;6832;51.186;3.236;2023-02-14T16:20:25;16.80;65.30
13521;DHT22;6832;51.186;3.236;2023-02-14T16:23:32;16.80;65.20
13521;DHT22;6832;51.186;3.236;2023-02-14T16:26:19;16.80;65.30
13521;DHT22;6832;51.186;3.236;2023-02-14T16:28:53;16.90;65.50
13521;DHT22;6832;51.186;3.236;2023-02-14T16:31:20;16.80;65.40
13521;DHT22;6832;51.186;3.236;2023-02-14T16:33:51;16.80;65.40
13521;DHT22;6832;51.186;3.236;2023-02-14T16:36:22;16.80;65.40
13521;DHT22;6832;51.186;3.236;2023-02-14T16:38:49;16.80;65.30
13521;DHT22;6832;51.186;3.236;2023-02-14T16:41:18;16.80;65.30
13521;DHT22;6832;51.186;3.236;2023-02-14T16:43:46;16.80;65.30
13521;DHT22;6832;51.186;3.236;2023-02-14T16:46:16;16.80;65.30
13521;DHT22;6832;51.186;3.236;2023-02-14T16:48:44;16.80;65.20
13521;DHT22;6832;51.186;3.236;2023-02-14T16:51:20;16.90;65.40
13521;DHT22;6832;51.186;3.236;2023-02-14T16:53:51;16.80;65.20
13521;DHT22;6832;51.186;3.236;2023-02-14T16:56:21;16.80;65.20
13521;DHT22;6832;51.186;3.236;2023-02-14T16:58:49;16.80;65.10
13521;DHT22;6832;51.186;3.236;2023-02-14T17:01:18;16.80;65.20
13521;DHT22;6832;51.186;3.236;2023-02-14T17:03:45;16.80;65.20
13521;DHT22;6832;51.186;3.236;2023-02-14T17:06:15;16.90;65.20
13521;DHT22;6832;51.186;3.236;2023-02-14T17:08:47;16.80;65.10
13521;DHT22;6832;51.186;3.236;2023-02-14T17:11:18;16.80;65.20
13521;DHT22;6832;51.186;3.236;2023-02-14T17:13:46;16.80;65.10
13521;DHT22;6832;51.186;3.236;2023-02-14T17:16:14;16.80;65.10
13521;DHT22;6832;51.186;3.236;2023-02-14T17:18:47;16.80;65.10
13521;DHT22;6832;51.186;3.236;2023-02-14T17:21:19;16.90;65.30
13521;DHT22;6832;51.186;3.236;2023-02-14T17:23:53;16.80;65.10
13521;DHT22;6832;51.186;3.236;2023-02-14T17:26:25;16.80;65.10
13521;DHT22;6832;51.186;3.236;2023-02-14T17:29:03;16.80;65.20
13521;DHT22;6832;51.186;3.236;2023-02-14T17:31:31;16.80;65.20
13521;DHT22;6832;51.186;3.236;2023-02-14T17:33:59;16.80;65.10
13521;DHT22;6832;51.186;3.236;2023-02-14T17:36:29;16.70;65.00
13521;DHT22;6832;51.186;3.236;2023-02-14T17:39:04;16.80;65.10
13521;DHT22;6832;51.186;3.236;2023-02-14T17:41:42;16.70;65.70
13521;DHT22;6832;51.186;3.236;2023-02-14T17:44:10;16.80;65.10
13521;DHT22;6832;51.186;3.236;2023-02-14T17:46:43;16.70;64.90
13521;DHT22;6832;51.186;3.236;2023-02-14T17:49:13;16.70;65.00
13521;DHT22;6832;51.186;3.236;2023-02-14T17:51:41;16.70;64.90
13521;DHT22;6832;51.186;3.236;2023-02-14T17:54:22;16.70;64.90
13521;DHT22;6832;51.186;3.236;2023-02-14T17:56:53;16.70;64.80
13521;DHT22;6832;51.186;3.236;2023-02-14T17:59:25;16.70;64.80
13521;DHT22;6832;51.186;3.236;2023-02-14T18:01:55;16.70;64.70
13521;DHT22;6832;51.186;3.236;2023-02-14T18:04:37;16.70;64.70
13521;DHT22;6832;51.186;3.236;2023-02-14T18:07:11;16.70;64.70
13521;DHT22;6832;51.186;3.236;2023-02-14T18:09:39;16.70;64.50
13521;DHT22;6832;51.186;3.236;2023-02-14T18:12:14;16.70;64.60
13521;DHT22;6832;51.186;3.236;2023-02-14T18:14:54;16.70;64.50
13521;DHT22;6832;51.186;3.236;2023-02-14T18:17:40;16.60;64.30
13521;DHT22;6832;51.186;3.236;2023-02-14T18:20:21;16.70;64.50
13521;DHT22;6832;51.186;3.236;2023-02-14T18:23:12;16.60;64.40
13521;DHT22;6832;51.186;3.236;2023-02-14T18:32:21;16.60;64.40
13521;DHT22;6832;51.186;3.236;2023-02-14T18:35:45;16.60;64.30
13521;DHT22;6832;51.186;3.236;2023-02-14T18:38:30;16.60;64.30